createdAt,value
2019-04-28T00:00:45.675Z,4.17
2019-04-28T00:03:13.850Z,4.65
2019-04-28T00:05:42.096Z,4.05
2019-04-28T00:08:10.866Z,4.45
2019-04-28T00:10:38.904Z,4.60
2019-04-28T00:13:06.344Z,3.92
2019-04-28T00:15:34.513Z,4.05
2019-04-28T00:18:04.174Z,4.22
2019-04-28T00:20:44.851Z,3.87
2019-04-28T00:23:34.146Z,3.75
2019-04-28T00:26:13.705Z,3.77
2019-04-28T00:28:41.883Z,3.60
2019-04-28T00:31:11.306Z,3.98
2019-04-28T00:33:41.003Z,3.65
2019-04-28T00:36:11.531Z,3.75
2019-04-28T00:38:39.077Z,3.33
2019-04-28T00:41:06.351Z,3.60
2019-04-28T00:43:33.527Z,3.20
2019-04-28T00:46:01.567Z,3.75
2019-04-28T00:48:30.824Z,3.60
2019-04-28T00:50:59.286Z,3.40
2019-04-28T00:53:28.079Z,3.95
2019-04-28T00:55:56.183Z,3.58
2019-04-28T00:58:24.743Z,3.55
2019-04-28T01:00:55.638Z,3.30
2019-04-28T01:03:24.017Z,3.65
2019-04-28T01:05:52.674Z,3.83
2019-04-28T01:08:20.939Z,4.10
2019-04-28T01:10:48.527Z,4.37
2019-04-28T01:13:16.954Z,3.80
2019-04-28T01:16:14.163Z,3.87
2019-04-28T01:18:56.634Z,3.95
2019-04-28T01:21:30.019Z,3.77
2019-04-28T01:23:59.810Z,3.20
2019-04-28T01:26:29.975Z,2.90
2019-04-28T01:28:59.650Z,2.90
2019-04-28T01:31:42.183Z,3.10
2019-04-28T01:34:20.644Z,3.35
2019-04-28T01:36:49.574Z,3.10
2019-04-28T01:39:17.832Z,3.27
2019-04-28T01:41:45.246Z,3.10
2019-04-28T01:44:13.996Z,2.70
2019-04-28T01:46:42.596Z,3.22
2019-04-28T01:49:11.191Z,3.20
2019-04-28T01:51:41.570Z,3.60
2019-04-28T01:54:11.678Z,4.65
2019-04-28T01:56:40.736Z,4.67
2019-04-28T01:59:10.189Z,3.83
2019-04-28T02:01:39.876Z,3.30
2019-04-28T02:04:10.071Z,3.42
2019-04-28T02:06:39.807Z,3.67
2019-04-28T02:09:09.743Z,4.67
2019-04-28T02:11:39.162Z,3.70
2019-04-28T02:14:09.640Z,3.70
2019-04-28T02:16:40.427Z,3.10
2019-04-28T02:19:10.638Z,3.77
2019-04-28T02:21:54.204Z,3.87
2019-04-28T02:24:30.738Z,3.00
2019-04-28T02:27:00.792Z,3.98
2019-04-28T02:29:30.009Z,3.65
2019-04-28T02:32:01.745Z,3.60
2019-04-28T02:34:31.099Z,3.45
2019-04-28T02:37:01.512Z,3.50
2019-04-28T02:39:31.281Z,2.80
2019-04-28T02:41:57.776Z,2.92
2019-04-28T02:44:24.835Z,2.90
2019-04-28T02:46:52.523Z,3.37
2019-04-28T02:49:26.503Z,3.45
2019-04-28T02:52:03.832Z,2.83
2019-04-28T02:54:32.185Z,3.20
2019-04-28T02:57:01.362Z,3.05
2019-04-28T02:59:30.527Z,3.98
2019-04-28T03:02:00.694Z,4.15
2019-04-28T03:04:30.746Z,3.72
2019-04-28T03:06:57.884Z,3.80
2019-04-28T03:09:24.950Z,3.33
2019-04-28T03:11:52.573Z,3.17
2019-04-28T03:14:20.968Z,3.15
2019-04-28T03:16:51.056Z,3.35
2019-04-28T03:19:21.184Z,4.00
2019-04-28T03:21:53.493Z,3.42
2019-04-28T03:24:22.483Z,3.77
2019-04-28T03:27:04.472Z,3.58
2019-04-28T03:29:40.638Z,3.62
2019-04-28T03:32:45.529Z,3.83
2019-04-28T03:35:04.036Z,3.17
2019-04-28T03:37:32.734Z,3.85
2019-04-28T03:40:00.605Z,2.90
2019-04-28T03:42:28.253Z,3.10
2019-04-28T03:45:00.818Z,5.03
2019-04-28T03:47:27.049Z,4.35
2019-04-28T03:49:56.239Z,3.98
2019-04-28T03:52:24.553Z,4.67
2019-04-28T03:54:53.715Z,4.42
2019-04-28T03:57:22.236Z,3.70
2019-04-28T03:59:51.380Z,3.70
2019-04-28T04:02:23.757Z,3.95
2019-04-28T04:04:52.746Z,3.22
2019-04-28T04:07:21.512Z,4.20
2019-04-28T04:10:00.950Z,3.47
2019-04-28T04:12:51.475Z,3.58
2019-04-28T04:15:41.406Z,3.72
2019-04-28T04:18:12.626Z,3.80
2019-04-28T04:20:40.931Z,4.35
2019-04-28T04:23:11.083Z,3.30
2019-04-28T04:25:37.693Z,3.40
2019-04-28T04:28:06.130Z,2.87
2019-04-28T04:30:34.727Z,3.58
2019-04-28T04:33:02.810Z,3.00
2019-04-28T04:35:35.924Z,2.42
2019-04-28T04:38:04.124Z,3.58
2019-04-28T04:40:32.521Z,3.45
2019-04-28T04:43:01.650Z,3.60
2019-04-28T04:45:30.700Z,4.00
2019-04-28T04:48:00.639Z,4.30
2019-04-28T04:50:27.177Z,3.37
2019-04-28T04:52:54.314Z,2.98
2019-04-28T04:55:21.384Z,3.70
2019-04-28T04:57:51.494Z,2.72
2019-04-28T05:00:30.666Z,3.62
2019-04-28T05:03:05.321Z,4.22
2019-04-28T05:05:36.714Z,2.90
2019-04-28T05:08:04.916Z,3.87
2019-04-28T05:10:32.950Z,4.10
2019-04-28T05:13:01.161Z,5.67
2019-04-28T05:15:30.288Z,4.00
2019-04-28T05:17:57.388Z,3.67
2019-04-28T05:20:24.488Z,4.78
2019-04-28T05:23:02.529Z,3.30
2019-04-28T05:25:35.527Z,3.67
2019-04-28T05:28:03.829Z,3.33
2019-04-28T05:30:34.758Z,3.90
2019-04-28T05:33:02.148Z,3.00
2019-04-28T05:35:31.018Z,3.50
2019-04-28T05:37:59.756Z,3.72
2019-04-28T05:40:30.542Z,3.40
2019-04-28T05:42:57.777Z,3.40
2019-04-28T05:45:29.368Z,3.83
2019-04-28T05:47:57.359Z,3.55
2019-04-28T05:50:30.565Z,3.35
2019-04-28T05:53:16.506Z,3.00
2019-04-28T05:56:03.041Z,3.27
2019-04-28T05:58:50.657Z,3.87
2019-04-28T06:01:37.453Z,4.72
2019-04-28T06:04:06.027Z,3.52
2019-04-28T06:06:37.738Z,4.92
2019-04-28T06:09:31.198Z,4.62
2019-04-28T06:12:00.120Z,4.28
2019-04-28T06:14:27.374Z,4.42
2019-04-28T06:16:54.535Z,4.12
2019-04-28T06:19:22.792Z,3.60
2019-04-28T06:21:51.004Z,4.05
2019-04-28T06:24:19.276Z,4.47
2019-04-28T06:26:47.698Z,4.47
2019-04-28T06:29:15.865Z,4.03
2019-04-28T06:31:43.925Z,3.98
2019-04-28T06:34:12.155Z,4.50
2019-04-28T06:36:40.228Z,3.62
2019-04-28T06:39:08.235Z,3.30
2019-04-28T06:41:35.498Z,3.90
2019-04-28T06:44:02.746Z,4.12
2019-04-28T06:46:31.837Z,3.58
2019-04-28T06:48:58.999Z,3.35
2019-04-28T06:51:27.150Z,3.58
2019-04-28T06:53:55.307Z,3.52
2019-04-28T06:56:23.284Z,3.60
2019-04-28T06:58:58.800Z,3.67
2019-04-28T07:01:21.481Z,3.20
2019-04-28T07:03:49.548Z,2.80
2019-04-28T07:06:17.882Z,2.90
2019-04-28T07:08:45.971Z,4.22
2019-04-28T07:11:13.939Z,2.85
2019-04-28T07:13:41.153Z,3.58
2019-04-28T07:16:08.098Z,3.20
2019-04-28T07:18:35.510Z,2.60
2019-04-28T07:21:10.962Z,2.90
2019-04-28T07:23:39.442Z,3.47
2019-04-28T07:26:07.501Z,3.67
2019-04-28T07:28:35.612Z,2.92
2019-04-28T07:31:04.006Z,3.62
2019-04-28T07:33:36.053Z,2.90
2019-04-28T07:36:02.047Z,2.92
2019-04-28T07:38:30.282Z,3.12
2019-04-28T07:40:58.334Z,3.10
2019-04-28T07:43:27.203Z,2.27
2019-04-28T07:45:54.136Z,2.70
2019-04-28T07:48:21.270Z,2.80
2019-04-28T07:50:49.610Z,2.50
2019-04-28T07:53:26.074Z,2.90
2019-04-28T07:55:54.335Z,2.95
2019-04-28T07:58:22.415Z,2.27
2019-04-28T08:00:51.407Z,2.60
2019-04-28T08:03:19.919Z,2.90
2019-04-28T08:05:47.950Z,2.75
2019-04-28T08:08:17.158Z,3.05
2019-04-28T08:10:44.346Z,3.27
2019-04-28T08:13:11.550Z,3.20
2019-04-28T08:15:39.007Z,3.83
2019-04-28T08:18:06.254Z,3.72
2019-04-28T08:20:34.439Z,2.80
2019-04-28T08:23:03.004Z,4.20
2019-04-28T08:25:31.118Z,3.35
2019-04-28T08:27:59.713Z,4.15
2019-04-28T08:30:27.951Z,3.80
2019-04-28T08:33:01.499Z,3.45
2019-04-28T08:35:29.734Z,3.50
2019-04-28T08:37:56.997Z,4.67
2019-04-28T08:40:24.331Z,4.58
2019-04-28T08:42:53.338Z,5.80
2019-04-28T08:45:20.429Z,6.03
2019-04-28T08:47:48.382Z,5.17
2019-04-28T08:50:16.805Z,5.12
2019-04-28T08:52:45.319Z,6.10
2019-04-28T08:55:13.859Z,6.25
2019-04-28T08:57:42.677Z,6.20
2019-04-28T09:00:11.883Z,5.35
2019-04-28T09:02:39.010Z,6.05
2019-04-28T09:05:06.085Z,5.87
2019-04-28T09:07:33.448Z,6.00
2019-04-28T09:10:01.843Z,6.43
2019-04-28T09:12:30.139Z,6.60
2019-04-28T09:14:58.647Z,6.47
2019-04-28T09:17:26.681Z,5.97
2019-04-28T09:19:55.063Z,6.63
2019-04-28T09:22:23.347Z,6.12
2019-04-28T09:24:51.652Z,6.90
2019-04-28T09:27:19.839Z,7.10
2019-04-28T09:29:47.985Z,6.03
2019-04-28T09:32:15.585Z,6.50
2019-04-28T09:34:43.120Z,6.57
2019-04-28T09:37:10.620Z,6.20
2019-04-28T09:39:48.118Z,6.60
2019-04-28T09:42:36.214Z,6.30
2019-04-28T09:45:08.237Z,7.00
2019-04-28T09:47:36.504Z,5.97
2019-04-28T09:50:05.033Z,6.23
2019-04-28T09:52:33.095Z,5.80
2019-04-28T09:55:01.682Z,6.40
2019-04-28T09:57:30.176Z,7.57
2019-04-28T09:59:57.345Z,6.70
2019-04-28T10:02:24.546Z,7.20
2019-04-28T10:04:55.064Z,6.47
2019-04-28T10:07:23.425Z,6.30
2019-04-28T10:09:51.634Z,6.70
2019-04-28T10:12:27.012Z,6.40
2019-04-28T10:14:50.236Z,6.60
2019-04-28T10:17:18.794Z,6.23
2019-04-28T10:19:48.058Z,6.67
2019-04-28T10:22:17.117Z,5.60
2019-04-28T10:24:45.056Z,6.10
2019-04-28T10:27:12.421Z,5.80
2019-04-28T10:29:39.815Z,6.07
2019-04-28T10:32:07.045Z,6.00
2019-04-28T10:34:35.401Z,6.97
2019-04-28T10:37:03.910Z,5.77
2019-04-28T10:39:39.840Z,5.50
2019-04-28T10:42:08.423Z,7.00
2019-04-28T10:44:40.317Z,6.60
2019-04-28T10:47:08.823Z,6.60
2019-04-28T10:49:37.349Z,6.47
2019-04-28T10:52:05.758Z,5.80
2019-04-28T10:54:33.638Z,6.10
2019-04-28T10:57:02.387Z,5.30
2019-04-28T10:59:32.917Z,6.03
2019-04-28T11:02:00.240Z,5.80
2019-04-28T11:05:08.037Z,7.10
2019-04-28T11:07:30.710Z,6.40
2019-04-28T11:10:11.185Z,5.97
2019-04-28T11:12:39.857Z,5.07
2019-04-28T11:15:13.179Z,5.10
2019-04-28T11:17:41.465Z,5.90
2019-04-28T11:20:09.610Z,5.50
2019-04-28T11:22:42.187Z,4.70
2019-04-28T11:25:10.678Z,4.50
2019-04-28T11:27:38.126Z,4.43
2019-04-28T11:30:05.390Z,3.67
2019-04-28T11:32:32.790Z,4.40
2019-04-28T11:35:24.801Z,4.37
2019-04-28T11:37:51.400Z,2.77
2019-04-28T11:40:19.380Z,3.30
2019-04-28T11:42:47.361Z,2.30
2019-04-28T11:45:15.767Z,2.25
2019-04-28T11:47:44.082Z,2.33
2019-04-28T11:50:12.607Z,2.30
2019-04-28T11:52:40.858Z,2.50
2019-04-28T11:55:11.276Z,1.70
2019-04-28T11:57:38.651Z,2.10
2019-04-28T12:00:17.146Z,1.80
2019-04-28T12:02:44.842Z,2.20
2019-04-28T12:05:12.315Z,2.50
2019-04-28T12:07:43.150Z,2.43
2019-04-28T12:10:16.845Z,2.50
2019-04-28T12:12:58.336Z,2.50
2019-04-28T12:15:55.581Z,2.40
2019-04-28T12:18:43.435Z,2.27
2019-04-28T12:21:11.826Z,2.70
2019-04-28T12:23:40.289Z,2.50
2019-04-28T12:26:07.619Z,2.70
2019-04-28T12:28:34.916Z,2.93
2019-04-28T12:31:02.463Z,3.20
2019-04-28T12:33:29.809Z,4.33
2019-04-28T12:36:04.647Z,3.50
2019-04-28T12:38:32.616Z,3.27
2019-04-28T12:41:01.023Z,3.40
2019-04-28T12:43:29.266Z,3.70
2019-04-28T12:45:57.478Z,3.30
2019-04-28T12:48:32.733Z,3.00
2019-04-28T12:51:01.422Z,3.80
2019-04-28T12:53:40.154Z,3.63
2019-04-28T12:56:07.596Z,3.27
2019-04-28T12:58:38.849Z,3.53
2019-04-28T13:01:25.261Z,3.20
2019-04-28T13:04:25.286Z,2.93
2019-04-28T13:07:04.348Z,2.70
2019-04-28T13:09:32.528Z,3.10
2019-04-28T13:12:00.765Z,3.40
2019-04-28T13:14:28.979Z,3.27
2019-04-28T13:16:57.215Z,3.10
2019-04-28T13:19:25.405Z,3.23
2019-04-28T13:21:52.555Z,3.20
2019-04-28T13:24:19.678Z,2.60
2019-04-28T13:26:57.045Z,4.30
2019-04-28T13:29:25.207Z,4.00
2019-04-28T13:31:53.394Z,3.20
2019-04-28T13:34:23.313Z,2.93
2019-04-28T13:36:56.501Z,2.77
2019-04-28T13:39:32.939Z,2.60
2019-04-28T13:42:01.102Z,2.80
2019-04-28T13:44:50.778Z,2.50
2019-04-28T13:47:19.110Z,2.13
2019-04-28T13:49:53.583Z,2.30
2019-04-28T13:52:21.829Z,2.60
2019-04-28T13:54:56.588Z,1.80
2019-04-28T13:57:24.975Z,1.80
2019-04-28T13:59:55.688Z,1.73
2019-04-28T14:02:48.517Z,1.80
2019-04-28T14:05:35.574Z,1.40
2019-04-28T14:08:02.917Z,1.73
2019-04-28T14:10:31.921Z,1.60
2019-04-28T14:13:00.187Z,1.87
2019-04-28T14:15:28.479Z,1.60
2019-04-28T14:17:56.579Z,1.40
2019-04-28T14:20:25.405Z,1.70
2019-04-28T14:22:53.692Z,1.30
2019-04-28T14:25:22.204Z,2.00
2019-04-28T14:27:51.911Z,1.40
2019-04-28T14:30:19.254Z,1.53
2019-04-28T14:32:47.444Z,1.60
2019-04-28T14:35:14.986Z,1.70
2019-04-28T14:37:42.446Z,1.50
2019-04-28T14:40:09.830Z,1.80
2019-04-28T14:42:39.406Z,1.70
2019-04-28T14:45:07.997Z,1.93
2019-04-28T14:47:41.665Z,1.70
2019-04-28T14:50:10.306Z,1.30
2019-04-28T14:52:38.364Z,1.80
2019-04-28T14:55:08.320Z,1.57
2019-04-28T14:57:44.189Z,1.67
2019-04-28T15:00:16.064Z,1.40
2019-04-28T15:03:04.038Z,1.10
2019-04-28T15:06:06.716Z,1.53
2019-04-28T15:08:51.953Z,1.20
2019-04-28T15:11:49.527Z,1.30
2019-04-28T15:14:20.855Z,1.17
2019-04-28T15:16:48.213Z,0.80
2019-04-28T15:19:15.715Z,0.87
2019-04-28T15:21:48.395Z,1.10
2019-04-28T15:24:16.976Z,1.40
2019-04-28T15:26:45.435Z,1.10
2019-04-28T15:29:19.752Z,1.00
2019-04-28T15:31:48.563Z,1.27
2019-04-28T15:34:17.766Z,0.93
2019-04-28T15:36:46.651Z,1.00
2019-04-28T15:39:17.084Z,1.10
2019-04-28T15:41:45.810Z,1.30
2019-04-28T15:44:13.553Z,1.50
2019-04-28T15:46:41.035Z,1.10
2019-04-28T15:49:09.883Z,1.07
2019-04-28T15:51:37.178Z,1.73
2019-04-28T15:54:04.615Z,1.07
2019-04-28T15:56:48.651Z,1.33
2019-04-28T15:59:18.098Z,1.40
2019-04-28T16:01:46.851Z,1.50
2019-04-28T16:04:18.275Z,1.20
2019-04-28T16:06:51.385Z,1.10
2019-04-28T16:09:23.263Z,1.10
2019-04-28T16:11:51.737Z,1.00
2019-04-28T16:14:29.369Z,1.40
2019-04-28T16:16:58.006Z,1.50
2019-04-28T16:19:37.318Z,1.00
2019-04-28T16:22:02.334Z,1.30
2019-04-28T16:24:29.620Z,1.20
2019-04-28T16:26:57.153Z,1.23
2019-04-28T16:29:32.664Z,1.33
2019-04-28T16:32:00.898Z,1.60
2019-04-28T16:34:28.742Z,1.10
2019-04-28T16:37:03.884Z,1.40
2019-04-28T16:39:32.150Z,1.10
2019-04-28T16:42:00.802Z,1.30
2019-04-28T16:44:29.503Z,1.20
2019-04-28T16:46:58.827Z,1.00
2019-04-28T16:49:27.290Z,1.40
2019-04-28T16:51:56.299Z,1.20
2019-04-28T16:54:24.688Z,1.30
2019-04-28T16:57:18.623Z,0.93
2019-04-28T17:00:00.780Z,0.90
2019-04-28T17:02:31.252Z,1.70
2019-04-28T17:05:00.418Z,1.83
2019-04-28T17:07:34.891Z,2.10
2019-04-28T17:10:03.846Z,2.70
2019-04-28T17:12:32.643Z,2.20
2019-04-28T17:15:01.874Z,2.40
2019-04-28T17:17:33.801Z,2.20
2019-04-28T17:20:02.565Z,1.93
2019-04-28T17:22:30.584Z,2.37
2019-04-28T17:24:59.111Z,1.70
2019-04-28T17:27:31.959Z,1.63
2019-04-28T17:29:58.966Z,1.43
2019-04-28T17:32:26.180Z,1.87
2019-04-28T17:34:54.379Z,2.27
2019-04-28T17:37:29.122Z,1.70
2019-04-28T17:39:57.752Z,1.73
2019-04-28T17:42:26.286Z,1.97
2019-04-28T17:44:55.063Z,1.83
2019-04-28T17:47:24.002Z,2.00
2019-04-28T17:49:56.918Z,1.83
2019-04-28T17:52:25.910Z,1.53
2019-04-28T17:54:53.098Z,2.10
2019-04-28T17:57:20.298Z,2.00
2019-04-28T17:59:49.390Z,3.17
2019-04-28T18:02:38.148Z,4.13
2019-04-28T18:05:15.054Z,4.43
2019-04-28T18:07:43.845Z,4.50
2019-04-28T18:10:12.291Z,15.97
2019-04-28T18:13:00.453Z,5.33
2019-04-28T18:15:48.399Z,4.03
2019-04-28T18:18:21.935Z,3.73
2019-04-28T18:20:49.023Z,3.63
2019-04-28T18:23:17.260Z,3.67
2019-04-28T18:25:45.675Z,3.50
2019-04-28T18:28:14.447Z,3.40
2019-04-28T18:31:06.222Z,3.60
2019-04-28T18:33:54.491Z,3.43
2019-04-28T18:36:32.120Z,3.50
2019-04-28T18:39:16.825Z,3.80
2019-04-28T18:41:55.443Z,3.20
2019-04-28T18:44:22.855Z,3.77
2019-04-28T18:46:50.498Z,3.67
2019-04-28T18:49:18.902Z,4.00
2019-04-28T18:51:46.633Z,4.67
2019-04-28T18:54:15.307Z,4.43
2019-04-28T18:56:44.207Z,4.60
2019-04-28T18:59:12.854Z,4.30
2019-04-28T19:02:07.352Z,6.10
2019-04-28T19:04:35.827Z,5.47
2019-04-28T19:07:06.597Z,5.03
2019-04-28T19:09:45.323Z,5.50
2019-04-28T19:12:39.171Z,4.87
2019-04-28T19:15:39.619Z,5.17
2019-04-28T19:18:13.696Z,5.30
2019-04-28T19:20:41.070Z,5.30
2019-04-28T19:23:08.894Z,5.33
2019-04-28T19:25:38.694Z,5.53
2019-04-28T19:28:07.637Z,5.50
2019-04-28T19:30:36.162Z,5.20
2019-04-28T19:33:04.824Z,5.43
2019-04-28T19:35:33.250Z,5.80
2019-04-28T19:38:02.354Z,5.90
2019-04-28T19:40:30.758Z,6.07
2019-04-28T19:42:59.354Z,6.33
2019-04-28T19:45:28.903Z,5.83
2019-04-28T19:47:57.555Z,6.27
2019-04-28T19:50:24.995Z,5.28
2019-04-28T19:52:52.075Z,6.25
2019-04-28T19:55:23.539Z,6.30
2019-04-28T19:58:10.442Z,6.75
2019-04-28T20:00:51.735Z,5.90
2019-04-28T20:03:19.982Z,6.83
2019-04-28T20:05:50.079Z,6.53
2019-04-28T20:08:18.286Z,6.30
2019-04-28T20:10:46.535Z,6.08
2019-04-28T20:13:14.759Z,5.90
2019-04-28T20:15:42.882Z,5.95
2019-04-28T20:18:10.111Z,6.30
2019-04-28T20:20:38.600Z,6.35
2019-04-28T20:23:06.938Z,5.80
2019-04-28T20:25:34.051Z,6.17
2019-04-28T20:28:03.699Z,6.53
2019-04-28T20:30:31.926Z,7.25
2019-04-28T20:33:07.022Z,6.90
2019-04-28T20:35:34.113Z,6.37
2019-04-28T20:38:08.940Z,5.78
2019-04-28T20:40:43.174Z,7.50
2019-04-28T20:43:15.441Z,6.90
2019-04-28T20:45:42.997Z,7.42
2019-04-28T20:48:10.593Z,7.55
2019-04-28T20:50:38.731Z,6.70
2019-04-28T20:53:07.197Z,7.33
2019-04-28T20:55:35.785Z,7.55
2019-04-28T20:58:04.724Z,7.35
2019-04-28T21:00:33.114Z,7.83
2019-04-28T21:03:00.621Z,8.40
2019-04-28T21:05:27.965Z,8.10
2019-04-28T21:07:56.335Z,7.50
2019-04-28T21:10:36.897Z,7.30
2019-04-28T21:12:55.697Z,7.53
2019-04-28T21:15:23.786Z,8.40
2019-04-28T21:17:51.798Z,8.90
2019-04-28T21:20:20.323Z,7.78
2019-04-28T21:22:48.983Z,7.70
2019-04-28T21:25:17.207Z,9.20
2019-04-28T21:27:46.922Z,9.50
2019-04-28T21:30:14.105Z,11.43
2019-04-28T21:32:41.298Z,11.15
2019-04-28T21:35:08.567Z,12.85
2019-04-28T21:37:35.742Z,12.33
2019-04-28T21:40:03.406Z,11.28
2019-04-28T21:43:00.743Z,10.60
2019-04-28T21:46:07.215Z,11.03
2019-04-28T21:48:44.039Z,10.30
2019-04-28T21:51:12.784Z,11.25
2019-04-28T21:53:41.060Z,10.75
2019-04-28T21:56:09.699Z,10.80
2019-04-28T21:58:37.972Z,12.15
2019-04-28T22:01:11.838Z,11.68
2019-04-28T22:03:40.495Z,11.83
2019-04-28T22:06:09.567Z,12.80
2019-04-28T22:08:37.527Z,11.65
2019-04-28T22:11:04.920Z,11.97
2019-04-28T22:13:32.973Z,11.60
2019-04-28T22:16:00.207Z,10.40
2019-04-28T22:18:27.408Z,11.03
2019-04-28T22:20:55.589Z,10.88
2019-04-28T22:23:30.661Z,11.08
2019-04-28T22:25:59.466Z,11.10
2019-04-28T22:28:28.108Z,9.90
2019-04-28T22:30:56.699Z,10.32
2019-04-28T22:33:25.146Z,9.70
2019-04-28T22:35:54.637Z,11.05
2019-04-28T22:38:23.038Z,10.20
2019-04-28T22:40:52.029Z,8.83
2019-04-28T22:43:19.858Z,9.78
2019-04-28T22:45:47.114Z,9.55
2019-04-28T22:48:20.903Z,9.75
2019-04-28T22:50:49.263Z,9.60
2019-04-28T22:53:20.336Z,8.53
2019-04-28T22:56:02.641Z,8.75
2019-04-28T22:58:38.726Z,8.58
2019-04-28T23:01:35.686Z,7.55
2019-04-28T23:04:14.033Z,7.15
2019-04-28T23:06:42.356Z,6.97
2019-04-28T23:09:13.054Z,8.00
2019-04-28T23:11:41.882Z,6.97
2019-04-28T23:14:10.515Z,7.33
2019-04-28T23:16:39.271Z,7.42
2019-04-28T23:19:08.944Z,7.15
2019-04-28T23:21:52.466Z,7.37
2019-04-28T23:24:20.246Z,6.65
2019-04-28T23:26:47.684Z,6.87
2019-04-28T23:29:18.225Z,7.60
2019-04-28T23:31:46.102Z,7.37
2019-04-28T23:34:14.542Z,7.37
2019-04-28T23:36:43.683Z,7.95
2019-04-28T23:39:12.106Z,7.25
2019-04-28T23:41:53.962Z,7.40
2019-04-28T23:44:22.946Z,7.12
2019-04-28T23:46:55.454Z,6.92
2019-04-28T23:49:24.756Z,7.22
2019-04-28T23:52:15.954Z,7.75
2019-04-28T23:54:49.963Z,7.45
2019-04-28T23:57:17.107Z,6.50
2019-04-28T23:59:45.481Z,7.17
